createdAt,value
2022-07-27T00:00:14.887Z,1016.14
2022-07-27T00:01:14.941Z,1016.16
2022-07-27T00:02:14.798Z,1016.13
2022-07-27T00:03:14.756Z,1016.14
2022-07-27T00:04:14.797Z,1016.12
2022-07-27T00:05:14.668Z,1016.12
2022-07-27T00:06:14.622Z,1016.14
2022-07-27T00:07:14.577Z,1016.09
2022-07-27T00:08:14.534Z,1016.07
2022-07-27T00:09:15.018Z,1016.09
2022-07-27T00:10:14.441Z,1016.10
2022-07-27T00:11:14.403Z,1016.09
2022-07-27T00:12:14.357Z,1016.13
2022-07-27T00:13:14.307Z,1016.11
2022-07-27T00:14:14.260Z,1016.13
2022-07-27T00:15:14.217Z,1016.13
2022-07-27T00:16:14.243Z,1016.12
2022-07-27T00:17:14.130Z,1016.14
2022-07-27T00:18:14.083Z,1016.14
2022-07-27T00:19:14.377Z,1016.11
2022-07-27T00:20:13.990Z,1016.14
2022-07-27T00:21:13.950Z,1016.12
2022-07-27T00:22:13.904Z,1016.15
2022-07-27T00:23:13.860Z,1016.14
2022-07-27T00:24:13.813Z,1016.14
2022-07-27T00:25:13.769Z,1016.09
2022-07-27T00:26:13.723Z,1016.09
2022-07-27T00:27:13.682Z,1016.08
2022-07-27T00:28:13.631Z,1016.09
2022-07-27T00:29:14.147Z,1016.09
2022-07-27T00:30:13.550Z,1016.08
2022-07-27T00:31:13.590Z,1016.09
2022-07-27T00:32:13.463Z,1016.04
2022-07-27T00:33:15.881Z,1016.04
2022-07-27T00:34:13.364Z,1016.08
2022-07-27T00:35:13.323Z,1016.10
2022-07-27T00:36:13.272Z,1016.05
2022-07-27T00:37:13.233Z,1016.05
2022-07-27T00:38:13.184Z,1016.04
2022-07-27T00:39:13.567Z,1016.01
2022-07-27T00:40:13.099Z,1016.00
2022-07-27T00:41:13.047Z,1016.03
2022-07-27T00:42:13.006Z,1016.04
2022-07-27T00:43:12.959Z,1016.04
2022-07-27T00:44:12.916Z,1016.07
2022-07-27T00:45:12.871Z,1016.11
2022-07-27T00:47:12.779Z,1016.15
2022-07-27T00:48:12.732Z,1016.14
2022-07-27T00:49:13.172Z,1016.15
2022-07-27T00:50:12.643Z,1016.15
2022-07-27T00:51:12.599Z,1016.15
2022-07-27T00:52:12.552Z,1016.16
2022-07-27T00:53:12.511Z,1016.19
2022-07-27T00:54:12.463Z,1016.16
2022-07-27T00:55:12.421Z,1016.15
2022-07-27T00:56:12.375Z,1016.17
2022-07-27T00:57:12.334Z,1016.13
2022-07-27T00:58:12.284Z,1016.12
2022-07-27T01:00:25.254Z,1016.14
2022-07-27T01:01:25.253Z,1016.15
2022-07-27T01:02:25.344Z,1016.14
2022-07-27T01:03:29.734Z,1016.15
2022-07-27T01:04:25.090Z,1016.13
2022-07-27T01:05:35.952Z,1016.10
2022-07-27T01:06:27.329Z,1016.15
2022-07-27T01:07:24.939Z,1016.15
2022-07-27T01:08:24.897Z,1016.17
2022-07-27T01:09:24.855Z,1016.14
2022-07-27T01:10:24.806Z,1016.14
2022-07-27T01:11:24.763Z,1016.14
2022-07-27T01:12:24.731Z,1016.08
2022-07-27T01:13:24.681Z,1016.08
2022-07-27T01:15:24.591Z,1016.04
2022-07-27T01:16:24.616Z,1016.04
2022-07-27T01:17:24.499Z,1016.04
2022-07-27T01:18:24.453Z,1016.06
2022-07-27T01:19:24.411Z,1016.04
2022-07-27T01:20:24.372Z,1016.09
2022-07-27T01:21:24.330Z,1016.08
2022-07-27T01:22:24.280Z,1016.08
2022-07-27T01:23:25.045Z,1016.11
2022-07-27T01:24:24.196Z,1016.10
2022-07-27T01:25:24.152Z,1016.04
2022-07-27T01:26:24.104Z,1016.10
2022-07-27T01:27:24.062Z,1016.11
2022-07-27T01:28:24.017Z,1016.10
2022-07-27T01:29:23.973Z,1016.08
2022-07-27T01:30:23.931Z,1016.10
2022-07-27T01:31:23.903Z,1016.09
2022-07-27T01:32:23.837Z,1016.12
2022-07-27T01:33:23.795Z,1016.12
2022-07-27T01:34:23.756Z,1016.04
2022-07-27T01:35:23.711Z,1016.13
2022-07-27T01:36:23.667Z,1016.09
2022-07-27T01:37:23.624Z,1016.09
2022-07-27T01:38:23.576Z,1016.07
2022-07-27T01:39:23.536Z,1016.03
2022-07-27T01:40:23.499Z,1016.07
2022-07-27T01:41:23.446Z,1016.03
2022-07-27T01:42:23.405Z,1016.02
2022-07-27T01:43:23.359Z,1016.01
2022-07-27T01:44:23.314Z,1015.99
2022-07-27T01:45:23.300Z,1016.06
2022-07-27T01:46:23.308Z,1016.04
2022-07-27T01:47:23.226Z,1016.00
2022-07-27T01:48:23.141Z,1016.02
2022-07-27T01:49:23.179Z,1016.03
2022-07-27T01:50:23.056Z,1016.04
2022-07-27T01:51:23.013Z,1016.00
2022-07-27T01:52:22.963Z,1016.01
2022-07-27T01:53:22.923Z,1016.01
2022-07-27T01:54:22.872Z,1016.02
2022-07-27T01:55:22.832Z,1016.02
2022-07-27T01:56:22.793Z,1015.99
2022-07-27T01:57:22.749Z,1015.99
2022-07-27T01:58:22.698Z,1016.00
2022-07-27T01:59:22.658Z,1015.99
2022-07-27T02:00:22.611Z,1015.96
2022-07-27T02:01:22.655Z,1015.93
2022-07-27T02:02:22.526Z,1015.97
2022-07-27T02:03:22.486Z,1015.98
2022-07-27T02:04:22.441Z,1016.01
2022-07-27T02:05:22.422Z,1016.02
2022-07-27T02:06:22.356Z,1015.99
2022-07-27T02:07:22.316Z,1016.03
2022-07-27T02:08:22.263Z,1016.00
2022-07-27T02:09:22.221Z,1016.00
2022-07-27T02:10:22.174Z,1015.92
2022-07-27T02:11:22.132Z,1015.97
2022-07-27T02:12:22.085Z,1015.92
2022-07-27T02:13:22.845Z,1015.95
2022-07-27T02:14:22.043Z,1015.97
2022-07-27T02:15:21.977Z,1015.97
2022-07-27T02:16:21.981Z,1015.95
2022-07-27T02:17:21.867Z,1015.94
2022-07-27T02:18:33.689Z,1015.94
2022-07-27T02:19:21.782Z,1015.95
2022-07-27T02:20:21.739Z,1016.01
2022-07-27T02:21:21.696Z,1015.96
2022-07-27T02:22:21.664Z,1015.98
2022-07-27T02:23:21.606Z,1015.95
2022-07-27T02:24:21.556Z,1015.99
2022-07-27T02:25:21.518Z,1015.94
2022-07-27T02:26:21.468Z,1015.98
2022-07-27T02:27:21.428Z,1015.97
2022-07-27T02:28:21.384Z,1015.94
2022-07-27T02:29:21.350Z,1015.95
2022-07-27T02:30:21.303Z,1015.93
2022-07-27T02:31:21.291Z,1015.91
2022-07-27T02:32:21.206Z,1015.97
2022-07-27T02:33:21.268Z,1015.94
2022-07-27T02:34:21.116Z,1015.95
2022-07-27T02:35:21.080Z,1016.02
2022-07-27T02:36:21.042Z,1016.02
2022-07-27T02:37:20.987Z,1016.03
2022-07-27T02:38:20.948Z,1016.04
2022-07-27T02:39:20.905Z,1016.03
2022-07-27T02:40:20.875Z,1016.04
2022-07-27T02:41:20.839Z,1016.08
2022-07-27T02:42:20.789Z,1016.07
2022-07-27T02:43:20.727Z,1016.00
2022-07-27T02:44:20.696Z,1016.02
2022-07-27T02:45:20.636Z,1016.00
2022-07-27T02:46:20.667Z,1015.98
2022-07-27T02:47:20.546Z,1015.95
2022-07-27T02:48:20.501Z,1015.97
2022-07-27T02:49:20.529Z,1015.96
2022-07-27T02:50:20.413Z,1015.91
2022-07-27T02:51:20.366Z,1015.93
2022-07-27T02:52:20.331Z,1015.95
2022-07-27T02:53:20.287Z,1015.94
2022-07-27T02:54:20.240Z,1015.93
2022-07-27T02:55:20.198Z,1015.93
2022-07-27T02:56:20.158Z,1015.93
2022-07-27T02:57:20.117Z,1015.94
2022-07-27T02:58:20.078Z,1015.95
2022-07-27T02:59:20.015Z,1015.99
2022-07-27T03:00:19.974Z,1015.95
2022-07-27T03:01:19.982Z,1015.98
2022-07-27T03:02:19.879Z,1015.99
2022-07-27T03:03:19.836Z,1015.98
2022-07-27T03:04:19.849Z,1015.98
2022-07-27T03:05:19.770Z,1015.96
2022-07-27T03:06:19.700Z,1015.96
2022-07-27T03:07:19.660Z,1015.95
2022-07-27T03:08:19.614Z,1015.98
2022-07-27T03:09:19.570Z,1015.99
2022-07-27T03:10:19.522Z,1015.99
2022-07-27T03:11:19.481Z,1015.99
2022-07-27T03:12:19.439Z,1016.00
2022-07-27T03:13:19.390Z,1016.00
2022-07-27T03:14:19.502Z,1016.01
2022-07-27T03:15:19.302Z,1015.99
2022-07-27T03:16:19.320Z,1015.97
2022-07-27T03:17:19.223Z,1015.92
2022-07-27T03:18:19.170Z,1015.91
2022-07-27T03:19:19.123Z,1015.89
2022-07-27T03:20:19.078Z,1015.92
2022-07-27T03:21:19.041Z,1015.90
2022-07-27T03:22:19.001Z,1015.93
2022-07-27T03:23:18.951Z,1015.93
2022-07-27T03:24:18.908Z,1015.89
2022-07-27T03:25:18.855Z,1015.90
2022-07-27T03:26:18.821Z,1015.91
2022-07-27T03:27:18.782Z,1015.93
2022-07-27T03:28:18.926Z,1015.93
2022-07-27T03:29:18.682Z,1015.93
2022-07-27T03:30:18.682Z,1015.97
2022-07-27T03:31:18.661Z,1015.96
2022-07-27T03:32:18.556Z,1015.98
2022-07-27T03:33:18.504Z,1016.02
2022-07-27T03:34:18.455Z,1016.04
2022-07-27T03:35:19.904Z,1016.05
2022-07-27T03:36:18.376Z,1016.02
2022-07-27T03:37:18.326Z,1016.08
2022-07-27T03:38:18.301Z,1016.07
2022-07-27T03:39:18.238Z,1016.05
2022-07-27T03:40:18.190Z,1016.08
2022-07-27T03:41:18.145Z,1016.10
2022-07-27T03:42:18.112Z,1016.10
2022-07-27T03:43:18.055Z,1016.04
2022-07-27T03:44:18.013Z,1016.10
2022-07-27T03:45:17.969Z,1016.10
2022-07-27T03:46:17.955Z,1016.09
2022-07-27T03:47:17.878Z,1016.10
2022-07-27T03:48:17.848Z,1016.11
2022-07-27T03:49:18.007Z,1016.12
2022-07-27T03:50:17.799Z,1016.10
2022-07-27T03:51:17.699Z,1016.12
2022-07-27T03:52:18.121Z,1016.15
2022-07-27T03:53:17.611Z,1016.15
2022-07-27T03:54:17.572Z,1016.14
2022-07-27T03:55:17.538Z,1016.14
2022-07-27T03:56:17.476Z,1016.16
2022-07-27T03:57:17.430Z,1016.17
2022-07-27T03:58:17.387Z,1016.19
2022-07-27T03:59:17.350Z,1016.12
2022-07-27T04:00:17.294Z,1016.19
2022-07-27T04:01:17.352Z,1016.20
2022-07-27T04:04:17.116Z,1016.18
2022-07-27T04:05:17.079Z,1016.18
2022-07-27T04:06:17.028Z,1016.14
2022-07-27T04:07:16.990Z,1016.16
2022-07-27T04:08:16.943Z,1016.18
2022-07-27T04:09:17.304Z,1016.18
2022-07-27T04:10:16.864Z,1016.19
2022-07-27T04:11:18.230Z,1016.22
2022-07-27T04:12:17.441Z,1016.20
2022-07-27T04:13:16.715Z,1016.18
2022-07-27T04:14:16.673Z,1016.18
2022-07-27T04:15:16.627Z,1016.21
2022-07-27T04:16:16.647Z,1016.22
2022-07-27T04:17:54.829Z,1016.21
2022-07-27T04:18:16.498Z,1016.24
2022-07-27T04:19:16.673Z,1016.25
2022-07-27T04:20:16.402Z,1016.30
2022-07-27T04:21:16.360Z,1016.25
2022-07-27T04:22:16.313Z,1016.29
2022-07-27T04:23:16.269Z,1016.31
2022-07-27T04:24:16.220Z,1016.29
2022-07-27T04:25:16.180Z,1016.30
2022-07-27T04:26:16.138Z,1016.33
2022-07-27T04:27:16.086Z,1016.34
2022-07-27T04:28:16.050Z,1016.31
2022-07-27T04:29:20.520Z,1016.36
2022-07-27T04:30:15.951Z,1016.35
2022-07-27T04:31:15.996Z,1016.36
2022-07-27T04:32:15.874Z,1016.34
2022-07-27T04:33:15.827Z,1016.36
2022-07-27T04:34:15.777Z,1016.33
2022-07-27T04:35:15.750Z,1016.35
2022-07-27T04:36:15.689Z,1016.39
2022-07-27T04:37:15.641Z,1016.34
2022-07-27T04:38:15.593Z,1016.35
2022-07-27T04:39:15.766Z,1016.34
2022-07-27T04:40:15.509Z,1016.38
2022-07-27T04:41:15.467Z,1016.39
2022-07-27T04:42:15.416Z,1016.38
2022-07-27T04:43:15.373Z,1016.44
2022-07-27T04:44:15.327Z,1016.43
2022-07-27T04:45:15.283Z,1016.43
2022-07-27T04:46:15.673Z,1016.48
2022-07-27T04:49:15.710Z,1016.46
2022-07-27T04:50:15.056Z,1016.47
2022-07-27T04:51:15.009Z,1016.49
2022-07-27T04:55:54.164Z,1016.40
2022-07-27T04:56:54.101Z,1016.40
2022-07-27T04:57:54.055Z,1016.42
2022-07-27T05:04:46.352Z,1016.49
2022-07-27T05:05:50.229Z,1016.50
2022-07-27T05:07:55.654Z,1016.54
2022-07-27T05:08:55.410Z,1016.56
2022-07-27T05:09:59.202Z,1016.53
2022-07-27T05:10:55.315Z,1016.56
2022-07-27T05:11:55.268Z,1016.58
2022-07-27T05:12:55.228Z,1016.53
2022-07-27T05:13:55.183Z,1016.60
2022-07-27T05:14:55.130Z,1016.59
2022-07-27T05:15:56.011Z,1016.60
2022-07-27T05:16:55.121Z,1016.56
2022-07-27T05:17:55.004Z,1016.55
2022-07-27T05:18:54.951Z,1016.52
2022-07-27T05:20:44.296Z,1016.54
2022-07-27T05:21:44.250Z,1016.58
2022-07-27T05:22:44.203Z,1016.59
2022-07-27T05:23:44.159Z,1016.60
2022-07-27T05:24:44.113Z,1016.61
2022-07-27T05:25:44.064Z,1016.62
2022-07-27T05:26:44.030Z,1016.58
2022-07-27T05:27:54.655Z,1016.60
2022-07-27T05:28:43.936Z,1016.60
2022-07-27T05:29:43.883Z,1016.62
2022-07-27T05:30:43.841Z,1016.65
2022-07-27T05:31:43.896Z,1016.67
2022-07-27T05:32:43.748Z,1016.66
2022-07-27T05:33:48.327Z,1016.65
2022-07-27T05:34:43.669Z,1016.62
2022-07-27T05:35:43.612Z,1016.65
2022-07-27T05:36:43.567Z,1016.67
2022-07-27T05:37:43.523Z,1016.64
2022-07-27T05:38:43.477Z,1016.64
2022-07-27T05:39:43.433Z,1016.63
2022-07-27T05:40:43.410Z,1016.65
2022-07-27T05:41:43.341Z,1016.69
2022-07-27T05:42:43.298Z,1016.70
2022-07-27T05:43:43.256Z,1016.71
2022-07-27T05:44:43.210Z,1016.72
2022-07-27T05:45:43.194Z,1016.69
2022-07-27T05:46:43.127Z,1016.74
2022-07-27T05:47:43.079Z,1016.74
2022-07-27T05:48:43.056Z,1016.78
2022-07-27T05:49:42.999Z,1016.76
2022-07-27T05:50:42.950Z,1016.79
2022-07-27T05:51:42.899Z,1016.80
2022-07-27T05:52:42.857Z,1016.83
2022-07-27T05:53:43.145Z,1016.86
2022-07-27T05:54:42.766Z,1016.83
2022-07-27T05:55:58.821Z,1016.81
2022-07-27T05:56:42.684Z,1016.82
2022-07-27T05:57:42.635Z,1016.82
2022-07-27T05:58:42.589Z,1016.84
2022-07-27T05:59:42.546Z,1016.88
2022-07-27T06:00:42.625Z,1016.88
2022-07-27T06:01:42.457Z,1016.86
2022-07-27T06:02:42.413Z,1016.87
2022-07-27T06:03:42.469Z,1016.86
2022-07-27T06:04:42.323Z,1016.88
2022-07-27T06:05:42.280Z,1016.87
2022-07-27T06:06:42.254Z,1016.87
2022-07-27T06:07:42.189Z,1016.85
2022-07-27T06:08:42.154Z,1016.86
2022-07-27T06:09:42.103Z,1016.83
2022-07-27T06:10:42.058Z,1016.81
2022-07-27T06:11:42.037Z,1016.82
2022-07-27T06:12:41.972Z,1016.86
2022-07-27T06:13:42.552Z,1016.87
2022-07-27T06:14:41.883Z,1016.90
2022-07-27T06:15:41.839Z,1016.87
2022-07-27T06:16:41.878Z,1016.88
2022-07-27T06:17:41.763Z,1016.90
2022-07-27T06:18:41.715Z,1016.91
2022-07-27T06:19:41.674Z,1016.95
2022-07-27T06:20:41.627Z,1016.98
2022-07-27T06:21:41.599Z,1016.97
2022-07-27T06:22:41.541Z,1016.94
2022-07-27T06:23:41.488Z,1016.97
2022-07-27T06:24:41.453Z,1016.95
2022-07-27T06:25:41.399Z,1016.94
2022-07-27T06:26:41.356Z,1016.97
2022-07-27T06:27:41.313Z,1016.94
2022-07-27T06:28:41.295Z,1016.90
2022-07-27T06:29:41.247Z,1016.92
2022-07-27T06:30:41.188Z,1016.93
2022-07-27T06:31:42.703Z,1016.93
2022-07-27T06:32:41.101Z,1016.93
2022-07-27T06:33:41.050Z,1016.94
2022-07-27T06:34:43.097Z,1016.95
2022-07-27T06:35:40.973Z,1016.97
2022-07-27T06:36:40.927Z,1016.99
2022-07-27T06:37:40.877Z,1016.99
2022-07-27T06:38:40.833Z,1016.94
2022-07-27T06:39:40.791Z,1016.96
2022-07-27T06:40:40.748Z,1016.93
2022-07-27T06:41:40.705Z,1016.98
2022-07-27T06:42:40.664Z,1016.98
2022-07-27T06:43:40.619Z,1016.97
2022-07-27T06:44:40.574Z,1016.97
2022-07-27T06:45:40.532Z,1016.96
2022-07-27T06:46:40.528Z,1017.00
2022-07-27T06:47:49.667Z,1016.97
2022-07-27T06:48:40.419Z,1016.99
2022-07-27T06:49:40.353Z,1016.98
2022-07-27T06:50:40.312Z,1017.00
2022-07-27T06:51:40.273Z,1017.00
2022-07-27T06:52:40.231Z,1016.99
2022-07-27T06:53:40.180Z,1016.87
2022-07-27T06:54:40.139Z,1016.97
2022-07-27T06:55:40.097Z,1016.94
2022-07-27T06:56:40.053Z,1016.95
2022-07-27T06:57:40.016Z,1016.98
2022-07-27T06:58:39.967Z,1016.97
2022-07-27T06:59:42.477Z,1016.99
2022-07-27T07:00:39.957Z,1016.99
2022-07-27T07:01:39.839Z,1016.98
2022-07-27T07:02:39.795Z,1017.02
2022-07-27T07:03:39.820Z,1017.00
2022-07-27T07:04:39.714Z,1017.03
2022-07-27T07:05:39.663Z,1017.05
2022-07-27T07:06:39.622Z,1017.08
2022-07-27T07:07:39.578Z,1017.11
2022-07-27T07:08:39.537Z,1017.09
2022-07-27T07:09:39.494Z,1017.06
2022-07-27T07:10:39.450Z,1017.02
2022-07-27T07:11:39.406Z,1017.00
2022-07-27T07:12:39.366Z,1017.02
2022-07-27T07:13:44.567Z,1017.03
2022-07-27T07:14:39.336Z,1017.02
2022-07-27T07:15:39.234Z,1017.08
2022-07-27T07:16:39.277Z,1017.04
2022-07-27T07:17:39.149Z,1017.06
2022-07-27T07:18:39.105Z,1017.04
2022-07-27T07:19:39.061Z,1017.05
2022-07-27T07:20:39.025Z,1017.07
2022-07-27T07:21:38.978Z,1017.09
2022-07-27T07:22:38.944Z,1017.10
2022-07-27T07:23:38.892Z,1017.11
2022-07-27T07:24:38.855Z,1017.14
2022-07-27T07:25:38.813Z,1017.13
2022-07-27T07:26:38.768Z,1017.14
2022-07-27T07:27:38.724Z,1017.16
2022-07-27T07:28:38.679Z,1017.15
2022-07-27T07:29:38.636Z,1017.09
2022-07-27T07:30:38.602Z,1017.13
2022-07-27T07:31:38.663Z,1017.10
2022-07-27T07:32:38.509Z,1017.13
2022-07-27T07:33:38.467Z,1017.13
2022-07-27T07:34:38.428Z,1017.14
2022-07-27T07:35:38.383Z,1017.12
2022-07-27T07:36:38.339Z,1017.14
2022-07-27T07:37:38.298Z,1017.15
2022-07-27T07:38:38.261Z,1017.17
2022-07-27T07:39:38.210Z,1017.15
2022-07-27T07:40:43.817Z,1017.15
2022-07-27T07:41:38.126Z,1017.17
2022-07-27T07:42:38.084Z,1017.15
2022-07-27T07:43:38.043Z,1017.12
2022-07-27T07:44:38.002Z,1017.13
2022-07-27T07:45:38.077Z,1017.11
2022-07-27T07:46:38.008Z,1017.12
2022-07-27T07:47:37.870Z,1017.12
2022-07-27T07:48:37.911Z,1017.11
2022-07-27T07:49:40.059Z,1017.10
2022-07-27T07:50:37.748Z,1017.08
2022-07-27T07:51:37.700Z,1017.08
2022-07-27T07:52:37.658Z,1017.10
2022-07-27T07:53:41.375Z,1017.08
2022-07-27T07:54:37.584Z,1017.10
2022-07-27T07:55:37.532Z,1017.13
2022-07-27T07:56:37.495Z,1017.09
2022-07-27T07:57:37.446Z,1017.13
2022-07-27T07:58:37.413Z,1017.12
2022-07-27T07:59:37.364Z,1017.13
2022-07-27T08:00:37.321Z,1017.14
2022-07-27T08:01:37.304Z,1017.16
2022-07-27T08:02:37.321Z,1017.17
2022-07-27T08:03:37.195Z,1017.11
2022-07-27T08:04:37.152Z,1017.14
2022-07-27T08:05:37.113Z,1017.14
2022-07-27T08:06:37.076Z,1017.16
2022-07-27T08:07:37.034Z,1017.13
2022-07-27T08:08:37.001Z,1017.11
2022-07-27T08:09:36.948Z,1017.11
2022-07-27T08:10:36.900Z,1017.15
2022-07-27T08:11:36.856Z,1017.14
2022-07-27T08:12:36.815Z,1017.18
2022-07-27T08:13:36.774Z,1017.19
2022-07-27T08:14:36.729Z,1017.16
2022-07-27T08:15:36.888Z,1017.20
2022-07-27T08:16:36.770Z,1017.19
2022-07-27T08:17:36.604Z,1017.19
2022-07-27T08:18:36.561Z,1017.21
2022-07-27T08:19:40.014Z,1017.23
2022-07-27T08:20:36.478Z,1017.24
2022-07-27T08:21:36.448Z,1017.24
2022-07-27T08:22:36.394Z,1017.25
2022-07-27T08:23:36.351Z,1017.26
2022-07-27T08:24:36.310Z,1017.24
2022-07-27T08:25:39.164Z,1017.26
2022-07-27T08:26:36.227Z,1017.28
2022-07-27T08:27:40.121Z,1017.30
2022-07-27T08:28:37.044Z,1017.28
2022-07-27T08:29:36.797Z,1017.30
2022-07-27T08:30:36.062Z,1017.26
2022-07-27T08:31:52.876Z,1017.29
2022-07-27T08:32:36.013Z,1017.27
2022-07-27T08:33:35.935Z,1017.28
2022-07-27T08:34:35.892Z,1017.28
2022-07-27T08:35:35.865Z,1017.25
2022-07-27T08:36:35.809Z,1017.27
2022-07-27T08:37:35.763Z,1017.27
2022-07-27T08:38:35.726Z,1017.26
2022-07-27T08:40:40.563Z,1017.27
2022-07-27T08:41:35.597Z,1017.26
2022-07-27T08:42:35.553Z,1017.23
2022-07-27T08:43:35.513Z,1017.25
2022-07-27T08:44:35.470Z,1017.22
2022-07-27T08:45:35.431Z,1017.24
2022-07-27T08:46:35.485Z,1017.27
2022-07-27T08:47:35.342Z,1017.21
2022-07-27T08:48:35.352Z,1017.20
2022-07-27T08:49:43.070Z,1017.21
2022-07-27T08:50:35.401Z,1017.24
2022-07-27T08:51:35.172Z,1017.28
2022-07-27T08:52:35.134Z,1017.24
2022-07-27T08:53:52.105Z,1017.27
2022-07-27T08:54:35.051Z,1017.29
2022-07-27T08:55:35.028Z,1017.30
2022-07-27T08:56:34.969Z,1017.32
2022-07-27T08:57:34.936Z,1017.30
2022-07-27T08:58:34.882Z,1017.31
2022-07-27T08:59:34.904Z,1017.29
2022-07-27T09:00:34.806Z,1017.31
2022-07-27T09:01:34.837Z,1017.37
2022-07-27T09:03:34.802Z,1017.35
2022-07-27T09:04:34.716Z,1017.36
2022-07-27T09:05:37.119Z,1017.35
2022-07-27T09:06:34.549Z,1017.36
2022-07-27T09:07:34.527Z,1017.35
2022-07-27T09:08:34.463Z,1017.34
2022-07-27T09:09:34.422Z,1017.36
2022-07-27T09:10:34.385Z,1017.33
2022-07-27T09:11:34.339Z,1017.31
2022-07-27T09:12:34.297Z,1017.33
2022-07-27T09:13:34.271Z,1017.31
2022-07-27T09:14:34.214Z,1017.32
2022-07-27T09:15:34.868Z,1017.35
2022-07-27T09:17:14.825Z,1017.37
2022-07-27T09:17:50.198Z,1017.35
2022-07-27T09:18:34.123Z,1017.38
2022-07-27T09:19:34.007Z,1017.40
2022-07-27T09:20:33.996Z,1017.41
2022-07-27T09:21:33.922Z,1017.37
2022-07-27T09:22:33.878Z,1017.39
2022-07-27T09:23:33.840Z,1017.34
2022-07-27T09:24:46.726Z,1017.34
2022-07-27T09:26:01.622Z,1017.38
2022-07-27T09:26:34.616Z,1017.34
2022-07-27T09:27:33.672Z,1017.39
2022-07-27T09:28:33.662Z,1017.39
2022-07-27T09:29:33.593Z,1017.40
2022-07-27T09:30:33.549Z,1017.36
2022-07-27T09:31:33.679Z,1017.37
2022-07-27T09:32:33.465Z,1017.36
2022-07-27T09:33:33.703Z,1017.40
2022-07-27T09:34:33.384Z,1017.42
2022-07-27T09:35:33.351Z,1017.37
2022-07-27T09:36:33.503Z,1017.40
2022-07-27T09:37:33.256Z,1017.37
2022-07-27T09:38:33.220Z,1017.41
2022-07-27T09:39:33.176Z,1017.39
2022-07-27T09:40:33.133Z,1017.40
2022-07-27T09:41:33.097Z,1017.33
2022-07-27T09:43:08.900Z,1017.36
2022-07-27T09:44:34.826Z,1017.43
2022-07-27T09:45:34.196Z,1017.41
2022-07-27T09:46:32.952Z,1017.36
2022-07-27T09:47:32.853Z,1017.36
2022-07-27T09:48:32.859Z,1017.31
2022-07-27T09:49:32.764Z,1017.32
2022-07-27T09:50:35.755Z,1017.34
2022-07-27T09:51:58.995Z,1017.32
2022-07-27T09:52:32.640Z,1017.30
2022-07-27T09:53:42.998Z,1017.34
2022-07-27T09:54:32.588Z,1017.28
2022-07-27T09:55:32.515Z,1017.30
2022-07-27T09:56:32.499Z,1017.16
2022-07-27T09:57:32.430Z,1017.26
2022-07-27T09:58:32.394Z,1017.27
2022-07-27T09:59:32.351Z,1017.28
2022-07-27T10:00:32.315Z,1017.28
2022-07-27T10:01:32.407Z,1017.25
2022-07-27T10:02:32.228Z,1017.24
2022-07-27T10:03:32.186Z,1017.23
2022-07-27T10:04:32.195Z,1017.24
2022-07-27T10:05:32.105Z,1017.30
2022-07-27T10:06:47.806Z,1017.24
2022-07-27T10:07:32.021Z,1017.28
2022-07-27T10:08:31.984Z,1017.25
2022-07-27T10:09:31.947Z,1017.20
2022-07-27T10:10:31.906Z,1017.22
2022-07-27T10:11:31.862Z,1017.24
2022-07-27T10:12:31.821Z,1017.25
2022-07-27T10:13:31.779Z,1017.20
2022-07-27T10:14:31.748Z,1017.19
2022-07-27T10:15:31.751Z,1017.17
2022-07-27T10:16:31.662Z,1017.18
2022-07-27T10:17:31.616Z,1017.16
2022-07-27T10:18:31.576Z,1017.25
2022-07-27T10:19:31.537Z,1017.24
2022-07-27T10:22:04.947Z,1017.28
2022-07-27T10:23:04.894Z,1017.27
2022-07-27T10:24:04.856Z,1017.27
2022-07-27T10:25:04.844Z,1017.27
2022-07-27T10:26:04.776Z,1017.30
2022-07-27T10:27:48.016Z,1017.25
2022-07-27T10:28:47.974Z,1017.21
2022-07-27T10:29:47.942Z,1017.23
2022-07-27T10:30:54.045Z,1017.23
2022-07-27T10:31:47.854Z,1017.21
2022-07-27T10:32:47.815Z,1017.28
2022-07-27T10:41:24.154Z,1017.28
2022-07-27T10:42:24.109Z,1017.28
2022-07-27T10:43:24.065Z,1017.28
2022-07-27T10:44:24.023Z,1017.25
2022-07-27T10:45:23.986Z,1017.30
2022-07-27T10:46:24.004Z,1017.29
2022-07-27T10:47:23.901Z,1017.25
2022-07-27T10:48:24.732Z,1017.25
2022-07-27T10:49:23.889Z,1017.30
2022-07-27T10:50:23.781Z,1017.30
2022-07-27T10:51:23.739Z,1017.26
2022-07-27T10:52:23.697Z,1017.28
2022-07-27T10:53:23.660Z,1017.28
2022-07-27T10:54:23.977Z,1017.28
2022-07-27T10:55:23.577Z,1017.31
2022-07-27T10:56:23.538Z,1017.31
2022-07-27T10:57:23.498Z,1017.30
2022-07-27T10:58:23.451Z,1017.25
2022-07-27T10:59:23.414Z,1017.22
2022-07-27T11:00:23.374Z,1017.25
2022-07-27T11:01:23.435Z,1017.28
2022-07-27T11:02:23.289Z,1017.28
2022-07-27T11:03:23.252Z,1017.31
2022-07-27T11:04:23.250Z,1017.31
2022-07-27T11:05:58.654Z,1017.31
2022-07-27T11:07:15.034Z,1017.35
2022-07-27T11:07:25.012Z,1017.37
2022-07-27T11:08:36.616Z,1017.35
2022-07-27T11:10:22.966Z,1017.30
2022-07-27T11:11:22.930Z,1017.34
2022-07-27T11:12:22.886Z,1017.30
2022-07-27T11:13:22.846Z,1017.27
2022-07-27T11:14:30.605Z,1017.32
2022-07-27T11:15:22.766Z,1017.25
2022-07-27T11:16:25.712Z,1017.25
2022-07-27T11:18:22.695Z,1017.24
2022-07-27T11:19:22.655Z,1017.25
2022-07-27T11:20:22.567Z,1017.26
2022-07-27T11:21:26.406Z,1017.22
2022-07-27T11:22:39.619Z,1017.20
2022-07-27T11:23:52.200Z,1017.21
2022-07-27T11:24:22.401Z,1017.17
2022-07-27T11:25:22.359Z,1017.15
2022-07-27T11:26:22.318Z,1017.11
2022-07-27T11:27:25.384Z,1017.13
2022-07-27T11:28:22.242Z,1017.13
2022-07-27T11:29:22.198Z,1017.07
2022-07-27T11:30:22.371Z,1017.08
2022-07-27T11:31:45.064Z,1017.11
2022-07-27T11:32:22.076Z,1017.10
2022-07-27T11:33:22.037Z,1017.05
2022-07-27T11:34:21.996Z,1017.07
2022-07-27T11:35:21.959Z,1017.07
2022-07-27T11:36:21.914Z,1017.07
2022-07-27T11:37:21.875Z,1017.04
2022-07-27T11:38:21.835Z,1017.02
2022-07-27T11:39:49.722Z,1016.97
2022-07-27T11:40:53.870Z,1016.96
2022-07-27T11:41:47.654Z,1016.98
2022-07-27T11:42:23.309Z,1016.99
2022-07-27T11:43:21.634Z,1016.97
2022-07-27T11:44:21.590Z,1016.95
2022-07-27T11:45:21.555Z,1016.94
2022-07-27T11:46:21.565Z,1016.93
2022-07-27T11:47:21.475Z,1016.92
2022-07-27T11:48:21.430Z,1016.91
2022-07-27T11:49:21.729Z,1016.94
2022-07-27T11:50:21.347Z,1016.91
2022-07-27T11:51:21.311Z,1016.90
2022-07-27T11:52:21.293Z,1016.90
2022-07-27T11:53:21.234Z,1016.90
2022-07-27T11:54:21.192Z,1016.89
2022-07-27T11:55:21.147Z,1016.87
2022-07-27T11:56:21.104Z,1016.88
2022-07-27T11:57:21.227Z,1016.91
2022-07-27T11:58:21.025Z,1016.85
2022-07-27T11:59:20.985Z,1016.90
2022-07-27T12:00:20.943Z,1016.92
2022-07-27T12:01:20.995Z,1016.94
2022-07-27T12:02:20.929Z,1016.90
2022-07-27T12:03:24.253Z,1016.83
2022-07-27T12:04:20.783Z,1016.84
2022-07-27T12:08:28.419Z,1016.78
2022-07-27T12:09:28.675Z,1016.75
2022-07-27T12:10:28.326Z,1016.83
2022-07-27T12:12:28.240Z,1016.77
2022-07-27T12:13:28.204Z,1016.76
2022-07-27T12:14:28.160Z,1016.81
2022-07-27T12:15:45.329Z,1016.79
2022-07-27T12:16:28.110Z,1016.77
2022-07-27T12:17:28.047Z,1016.76
2022-07-27T12:18:28.005Z,1016.74
2022-07-27T12:19:27.966Z,1016.77
2022-07-27T12:20:27.923Z,1016.77
2022-07-27T12:21:31.789Z,1016.79
2022-07-27T12:22:27.847Z,1016.80
2022-07-27T12:23:27.806Z,1016.80
2022-07-27T12:24:27.765Z,1016.76
2022-07-27T12:25:27.727Z,1016.77
2022-07-27T12:26:30.037Z,1016.76
2022-07-27T12:27:27.647Z,1016.79
2022-07-27T12:28:27.607Z,1016.82
2022-07-27T12:29:27.570Z,1016.79
2022-07-27T12:30:27.588Z,1016.77
2022-07-27T12:31:27.544Z,1016.75
2022-07-27T12:32:27.449Z,1016.76
2022-07-27T12:33:27.435Z,1016.74
2022-07-27T12:34:27.370Z,1016.68
2022-07-27T12:35:28.237Z,1016.66
2022-07-27T12:36:27.293Z,1016.65
2022-07-27T12:37:27.257Z,1016.66
2022-07-27T12:38:27.213Z,1016.65
2022-07-27T12:39:27.174Z,1016.66
2022-07-27T12:40:27.134Z,1016.67
2022-07-27T12:41:27.102Z,1016.64
2022-07-27T12:42:27.058Z,1016.64